Airfield :
LOGIN :

Register | Disclaimer

   EN    FR    IT 

 










Legend :    VFR   Marginal VFR   IFR   Intensive IFR   Very Intensive IFR
Visi :
Ceiling :
>= 8 km
>= 3000ft
5 to 8 km
1000 to 3000 ft
1500m to 5 km
500 to 1000 ft
800 to 1500m
200 to 500 ft
< 800m
< 200 ft
Symbols :   Thunderstorms  Fog  Heavy snow  Heavy precipitations  Wind > 20 kt
SIGMETs :     Misc.  Thunderstorms  Icing  Turbulence  Mountain Waves  Volcanic Ashes







- Airport Elevation : 42 ft
- IATA code : CAL
- Download approach charts


EGEC - Campbeltown

CURRENT METAR :
  • 281620Z 20008KT 9999 FEW031 BKN048 17/13 Q0997

EXPIRED METARs :
  • 281550Z 17007KT 9999 SHRA FEW020 BKN048 15/13 Q0997
  • 281520Z 23006KT 9999 FEW020 SCT041 BKN048 16/12 Q0997
  • 281450Z 20005KT 9999 -RA FEW018 SCT048 14/13 Q0998
  • 281420Z 26005KT 9999 RA SCT018 SCT030 BKN049 14/12 Q0998
  • 281350Z 25006KT 9999 RA SCT020 BKN049 15/12 Q0998

TAF TAF EGEC
Valid from the 28 at 09:00 until the 28 at 17:00 UTC


280759Z 2809/2817 21012KT 9999 FEW020
TEMPO 2809/2817 6000 SHRA
No reported NOTAMs for that airfield.



MET'MAP, your aeronautical weather chart ! - Copyright ORBIFLY December 2007 - Disclaimer

ORBIFLY MET'MAP TEAM :

Programming & Development : Alexandra Zaïnal
Concept & Development : Baudouin d'Aumeries
Co-Development & Prog : Marc-Olivier Méhu
Technical & hardware support : Manuel Goepfert

Contact : metmap@orbifly.com




SOURCES & CREDITS :

   NOAA